sensor_id;sensor_type;location;lat;lon;timestamp;temperature;humidity
20041;DHT22;10181;48.072;9.884;2024-03-02T00:01:23;3.50;99.90
20041;DHT22;10181;48.072;9.884;2024-03-02T00:03:49;3.60;99.90
20041;DHT22;10181;48.072;9.884;2024-03-02T00:06:19;3.60;99.90
20041;DHT22;10181;48.072;9.884;2024-03-02T00:08:45;3.60;99.90
20041;DHT22;10181;48.072;9.884;2024-03-02T00:11:11;3.60;99.90
20041;DHT22;10181;48.072;9.884;2024-03-02T00:13:39;3.60;99.90
20041;DHT22;10181;48.072;9.884;2024-03-02T00:16:05;3.60;99.90
20041;DHT22;10181;48.072;9.884;2024-03-02T00:18:33;3.60;99.90
20041;DHT22;10181;48.072;9.884;2024-03-02T00:21:00;3.60;99.90
20041;DHT22;10181;48.072;9.884;2024-03-02T00:23:33;3.50;99.90
20041;DHT22;10181;48.072;9.884;2024-03-02T00:25:59;3.50;99.90
20041;DHT22;10181;48.072;9.884;2024-03-02T00:28:32;3.50;99.90
20041;DHT22;10181;48.072;9.884;2024-03-02T00:33:35;3.50;99.90
20041;DHT22;10181;48.072;9.884;2024-03-02T00:36:05;3.50;99.90
20041;DHT22;10181;48.072;9.884;2024-03-02T00:38:31;3.50;99.90
20041;DHT22;10181;48.072;9.884;2024-03-02T00:41:04;3.50;99.90
20041;DHT22;10181;48.072;9.884;2024-03-02T00:46:18;3.50;99.90
20041;DHT22;10181;48.072;9.884;2024-03-02T00:48:55;3.50;99.90
20041;DHT22;10181;48.072;9.884;2024-03-02T00:51:22;3.50;99.90
20041;DHT22;10181;48.072;9.884;2024-03-02T00:53:48;3.50;99.90
20041;DHT22;10181;48.072;9.884;2024-03-02T00:56:14;3.50;99.90
20041;DHT22;10181;48.072;9.884;2024-03-02T00:58:40;3.40;99.90
20041;DHT22;10181;48.072;9.884;2024-03-02T01:01:05;3.40;99.90
20041;DHT22;10181;48.072;9.884;2024-03-02T01:03:32;3.30;99.90
20041;DHT22;10181;48.072;9.884;2024-03-02T01:05:58;3.30;99.90
20041;DHT22;10181;48.072;9.884;2024-03-02T01:08:24;3.20;99.90
20041;DHT22;10181;48.072;9.884;2024-03-02T01:10:50;3.10;99.90
20041;DHT22;10181;48.072;9.884;2024-03-02T01:13:16;3.00;99.90
20041;DHT22;10181;48.072;9.884;2024-03-02T01:15:41;3.00;99.90
20041;DHT22;10181;48.072;9.884;2024-03-02T01:18:07;3.00;99.90
20041;DHT22;10181;48.072;9.884;2024-03-02T01:20:33;3.00;99.90
20041;DHT22;10181;48.072;9.884;2024-03-02T01:22:58;3.00;99.90
20041;DHT22;10181;48.072;9.884;2024-03-02T01:25:24;3.00;99.90
20041;DHT22;10181;48.072;9.884;2024-03-02T01:27:50;3.00;99.90
20041;DHT22;10181;48.072;9.884;2024-03-02T01:30:16;3.00;99.90
20041;DHT22;10181;48.072;9.884;2024-03-02T01:32:41;3.00;99.90
20041;DHT22;10181;48.072;9.884;2024-03-02T01:35:07;3.00;99.90
20041;DHT22;10181;48.072;9.884;2024-03-02T01:37:33;3.00;99.90
20041;DHT22;10181;48.072;9.884;2024-03-02T01:39:58;3.00;99.90
20041;DHT22;10181;48.072;9.884;2024-03-02T01:42:24;3.10;99.90
20041;DHT22;10181;48.072;9.884;2024-03-02T01:44:50;3.10;99.90
20041;DHT22;10181;48.072;9.884;2024-03-02T01:47:16;3.10;99.90
20041;DHT22;10181;48.072;9.884;2024-03-02T01:49:42;3.20;99.90
20041;DHT22;10181;48.072;9.884;2024-03-02T01:52:07;3.20;99.90
20041;DHT22;10181;48.072;9.884;2024-03-02T01:54:33;3.30;99.90
20041;DHT22;10181;48.072;9.884;2024-03-02T01:56:59;3.30;99.90
20041;DHT22;10181;48.072;9.884;2024-03-02T01:59:25;3.40;99.90
20041;DHT22;10181;48.072;9.884;2024-03-02T02:01:51;3.50;99.90
20041;DHT22;10181;48.072;9.884;2024-03-02T02:04:17;3.50;99.90
20041;DHT22;10181;48.072;9.884;2024-03-02T02:06:44;3.50;99.90
20041;DHT22;10181;48.072;9.884;2024-03-02T02:09:10;3.60;99.90
20041;DHT22;10181;48.072;9.884;2024-03-02T02:11:35;3.60;99.90
20041;DHT22;10181;48.072;9.884;2024-03-02T02:14:01;3.60;99.90
20041;DHT22;10181;48.072;9.884;2024-03-02T02:16:27;3.60;99.90
20041;DHT22;10181;48.072;9.884;2024-03-02T02:18:52;3.40;99.90
20041;DHT22;10181;48.072;9.884;2024-03-02T02:21:22;3.40;99.90
20041;DHT22;10181;48.072;9.884;2024-03-02T02:23:48;3.30;99.90
20041;DHT22;10181;48.072;9.884;2024-03-02T02:26:14;3.40;99.90
20041;DHT22;10181;48.072;9.884;2024-03-02T02:28:39;3.40;99.90
20041;DHT22;10181;48.072;9.884;2024-03-02T02:31:14;3.40;99.90
20041;DHT22;10181;48.072;9.884;2024-03-02T02:33:41;3.40;99.90
20041;DHT22;10181;48.072;9.884;2024-03-02T02:36:06;3.40;99.90
20041;DHT22;10181;48.072;9.884;2024-03-02T02:38:34;3.40;99.90
20041;DHT22;10181;48.072;9.884;2024-03-02T02:41:02;3.30;99.90
20041;DHT22;10181;48.072;9.884;2024-03-02T02:43:27;3.30;99.90
20041;DHT22;10181;48.072;9.884;2024-03-02T02:45:53;3.30;99.90
20041;DHT22;10181;48.072;9.884;2024-03-02T02:48:18;3.20;99.90
20041;DHT22;10181;48.072;9.884;2024-03-02T02:50:44;3.20;99.90
20041;DHT22;10181;48.072;9.884;2024-03-02T02:53:10;3.20;99.90
20041;DHT22;10181;48.072;9.884;2024-03-02T02:55:35;3.20;99.90
20041;DHT22;10181;48.072;9.884;2024-03-02T02:58:09;3.30;99.90
20041;DHT22;10181;48.072;9.884;2024-03-02T03:00:34;3.30;99.90
20041;DHT22;10181;48.072;9.884;2024-03-02T03:03:02;3.20;99.90
20041;DHT22;10181;48.072;9.884;2024-03-02T03:05:27;3.10;99.90
20041;DHT22;10181;48.072;9.884;2024-03-02T03:07:53;3.10;99.90
20041;DHT22;10181;48.072;9.884;2024-03-02T03:10:19;3.20;99.90
20041;DHT22;10181;48.072;9.884;2024-03-02T03:12:47;3.20;99.90
20041;DHT22;10181;48.072;9.884;2024-03-02T03:15:13;3.20;99.90
20041;DHT22;10181;48.072;9.884;2024-03-02T03:17:39;3.10;99.90
20041;DHT22;10181;48.072;9.884;2024-03-02T03:20:06;3.10;99.90
20041;DHT22;10181;48.072;9.884;2024-03-02T03:22:38;3.20;99.90
20041;DHT22;10181;48.072;9.884;2024-03-02T03:25:04;3.20;99.90
20041;DHT22;10181;48.072;9.884;2024-03-02T03:27:30;3.20;99.90
20041;DHT22;10181;48.072;9.884;2024-03-02T03:29:55;3.20;99.90
20041;DHT22;10181;48.072;9.884;2024-03-02T03:32:21;3.10;99.90
20041;DHT22;10181;48.072;9.884;2024-03-02T03:34:47;3.10;99.90
20041;DHT22;10181;48.072;9.884;2024-03-02T03:37:14;3.10;99.90
20041;DHT22;10181;48.072;9.884;2024-03-02T03:39:39;3.00;99.90
20041;DHT22;10181;48.072;9.884;2024-03-02T03:42:05;3.00;99.90
20041;DHT22;10181;48.072;9.884;2024-03-02T03:44:31;2.90;99.90
20041;DHT22;10181;48.072;9.884;2024-03-02T03:46:57;2.90;99.90
20041;DHT22;10181;48.072;9.884;2024-03-02T03:49:23;2.90;99.90
20041;DHT22;10181;48.072;9.884;2024-03-02T03:51:48;3.00;99.90
20041;DHT22;10181;48.072;9.884;2024-03-02T03:54:14;3.00;99.90
20041;DHT22;10181;48.072;9.884;2024-03-02T03:56:40;3.00;99.90
20041;DHT22;10181;48.072;9.884;2024-03-02T03:59:06;3.00;99.90
20041;DHT22;10181;48.072;9.884;2024-03-02T04:01:31;3.10;99.90
20041;DHT22;10181;48.072;9.884;2024-03-02T04:03:57;3.20;99.90
20041;DHT22;10181;48.072;9.884;2024-03-02T04:06:23;3.10;99.90
20041;DHT22;10181;48.072;9.884;2024-03-02T04:08:49;3.00;99.90
20041;DHT22;10181;48.072;9.884;2024-03-02T04:11:14;2.90;99.90
20041;DHT22;10181;48.072;9.884;2024-03-02T04:13:40;2.90;99.90
20041;DHT22;10181;48.072;9.884;2024-03-02T04:16:06;2.90;99.90
20041;DHT22;10181;48.072;9.884;2024-03-02T04:18:31;2.90;99.90
20041;DHT22;10181;48.072;9.884;2024-03-02T04:21:00;2.90;99.90
20041;DHT22;10181;48.072;9.884;2024-03-02T04:23:26;2.90;99.90
20041;DHT22;10181;48.072;9.884;2024-03-02T04:25:52;2.90;99.90
20041;DHT22;10181;48.072;9.884;2024-03-02T04:28:17;3.00;99.90
20041;DHT22;10181;48.072;9.884;2024-03-02T04:30:43;3.10;99.90
20041;DHT22;10181;48.072;9.884;2024-03-02T04:33:08;3.30;99.90
20041;DHT22;10181;48.072;9.884;2024-03-02T04:35:36;3.50;99.90
20041;DHT22;10181;48.072;9.884;2024-03-02T04:38:01;3.70;99.90
20041;DHT22;10181;48.072;9.884;2024-03-02T04:40:27;3.70;99.90
20041;DHT22;10181;48.072;9.884;2024-03-02T04:42:53;3.60;99.90
20041;DHT22;10181;48.072;9.884;2024-03-02T04:45:19;3.60;99.90
20041;DHT22;10181;48.072;9.884;2024-03-02T04:47:45;3.60;99.90
20041;DHT22;10181;48.072;9.884;2024-03-02T04:50:10;3.60;99.90
20041;DHT22;10181;48.072;9.884;2024-03-02T04:52:36;3.60;99.90
20041;DHT22;10181;48.072;9.884;2024-03-02T04:55:02;3.60;99.90
20041;DHT22;10181;48.072;9.884;2024-03-02T04:57:46;3.60;99.90
20041;DHT22;10181;48.072;9.884;2024-03-02T05:00:13;3.60;99.90
20041;DHT22;10181;48.072;9.884;2024-03-02T05:02:39;3.60;99.90
20041;DHT22;10181;48.072;9.884;2024-03-02T05:05:04;3.70;99.90
20041;DHT22;10181;48.072;9.884;2024-03-02T05:07:30;3.70;99.90
20041;DHT22;10181;48.072;9.884;2024-03-02T05:09:55;3.60;99.90
20041;DHT22;10181;48.072;9.884;2024-03-02T05:12:21;3.60;99.90
20041;DHT22;10181;48.072;9.884;2024-03-02T05:15:05;3.60;99.90
20041;DHT22;10181;48.072;9.884;2024-03-02T05:17:32;3.70;99.90
20041;DHT22;10181;48.072;9.884;2024-03-02T05:19:58;3.70;99.90
20041;DHT22;10181;48.072;9.884;2024-03-02T05:22:24;3.80;99.90
20041;DHT22;10181;48.072;9.884;2024-03-02T05:24:49;3.80;99.90
20041;DHT22;10181;48.072;9.884;2024-03-02T05:27:15;3.70;99.90
20041;DHT22;10181;48.072;9.884;2024-03-02T05:29:41;3.70;99.90
20041;DHT22;10181;48.072;9.884;2024-03-02T05:32:06;3.50;99.90
20041;DHT22;10181;48.072;9.884;2024-03-02T05:34:32;3.50;99.90
20041;DHT22;10181;48.072;9.884;2024-03-02T05:37:00;3.50;99.90
20041;DHT22;10181;48.072;9.884;2024-03-02T05:39:25;3.40;99.90
20041;DHT22;10181;48.072;9.884;2024-03-02T05:41:51;3.40;99.90
20041;DHT22;10181;48.072;9.884;2024-03-02T05:44:17;3.30;99.90
20041;DHT22;10181;48.072;9.884;2024-03-02T05:46:44;3.30;99.90
20041;DHT22;10181;48.072;9.884;2024-03-02T05:49:10;3.30;99.90
20041;DHT22;10181;48.072;9.884;2024-03-02T05:51:35;3.30;99.90
20041;DHT22;10181;48.072;9.884;2024-03-02T05:54:01;3.40;99.90
20041;DHT22;10181;48.072;9.884;2024-03-02T05:56:27;3.40;99.90
20041;DHT22;10181;48.072;9.884;2024-03-02T05:58:53;3.40;99.90
20041;DHT22;10181;48.072;9.884;2024-03-02T06:01:33;3.40;99.90
20041;DHT22;10181;48.072;9.884;2024-03-02T06:03:59;3.10;99.90
20041;DHT22;10181;48.072;9.884;2024-03-02T06:06:25;3.00;99.90
20041;DHT22;10181;48.072;9.884;2024-03-02T06:08:51;3.00;99.90
20041;DHT22;10181;48.072;9.884;2024-03-02T06:11:17;3.00;99.90
20041;DHT22;10181;48.072;9.884;2024-03-02T06:13:43;2.90;99.90
20041;DHT22;10181;48.072;9.884;2024-03-02T06:16:08;2.80;99.90
20041;DHT22;10181;48.072;9.884;2024-03-02T06:18:34;2.80;99.90
20041;DHT22;10181;48.072;9.884;2024-03-02T06:21:00;2.80;99.90
20041;DHT22;10181;48.072;9.884;2024-03-02T06:23:29;2.70;99.90
20041;DHT22;10181;48.072;9.884;2024-03-02T06:25:54;2.70;99.90
20041;DHT22;10181;48.072;9.884;2024-03-02T06:28:20;2.70;99.90
20041;DHT22;10181;48.072;9.884;2024-03-02T06:30:46;2.70;99.90
20041;DHT22;10181;48.072;9.884;2024-03-02T06:33:11;2.80;99.90
20041;DHT22;10181;48.072;9.884;2024-03-02T06:35:37;2.90;99.90
20041;DHT22;10181;48.072;9.884;2024-03-02T06:38:03;3.00;99.90
20041;DHT22;10181;48.072;9.884;2024-03-02T06:40:29;3.10;99.90
20041;DHT22;10181;48.072;9.884;2024-03-02T06:42:54;3.10;99.90
20041;DHT22;10181;48.072;9.884;2024-03-02T06:45:20;3.20;99.90
20041;DHT22;10181;48.072;9.884;2024-03-02T06:47:45;3.20;99.90
20041;DHT22;10181;48.072;9.884;2024-03-02T06:50:11;3.30;99.90
20041;DHT22;10181;48.072;9.884;2024-03-02T06:52:37;3.30;99.90
20041;DHT22;10181;48.072;9.884;2024-03-02T06:55:03;3.30;99.90
20041;DHT22;10181;48.072;9.884;2024-03-02T06:57:29;3.30;99.90
20041;DHT22;10181;48.072;9.884;2024-03-02T06:59:55;3.30;99.90
20041;DHT22;10181;48.072;9.884;2024-03-02T07:02:24;3.30;99.90
20041;DHT22;10181;48.072;9.884;2024-03-02T07:04:51;3.30;99.90
20041;DHT22;10181;48.072;9.884;2024-03-02T07:07:16;3.40;99.90
20041;DHT22;10181;48.072;9.884;2024-03-02T07:09:42;3.40;99.90
20041;DHT22;10181;48.072;9.884;2024-03-02T07:12:08;3.40;99.90
20041;DHT22;10181;48.072;9.884;2024-03-02T07:14:34;3.50;99.90
20041;DHT22;10181;48.072;9.884;2024-03-02T07:17:18;3.60;99.90
20041;DHT22;10181;48.072;9.884;2024-03-02T07:19:44;3.70;99.90
20041;DHT22;10181;48.072;9.884;2024-03-02T07:22:09;3.70;99.90
20041;DHT22;10181;48.072;9.884;2024-03-02T07:24:42;3.60;99.90
20041;DHT22;10181;48.072;9.884;2024-03-02T07:27:11;3.70;99.90
20041;DHT22;10181;48.072;9.884;2024-03-02T07:29:38;3.70;99.90
20041;DHT22;10181;48.072;9.884;2024-03-02T07:32:04;3.80;99.90
20041;DHT22;10181;48.072;9.884;2024-03-02T07:34:30;3.90;99.90
20041;DHT22;10181;48.072;9.884;2024-03-02T07:36:55;4.00;99.90
20041;DHT22;10181;48.072;9.884;2024-03-02T07:39:21;4.10;99.90
20041;DHT22;10181;48.072;9.884;2024-03-02T07:41:47;4.20;99.90
20041;DHT22;10181;48.072;9.884;2024-03-02T07:44:13;4.30;99.90
20041;DHT22;10181;48.072;9.884;2024-03-02T07:46:43;4.40;99.90
20041;DHT22;10181;48.072;9.884;2024-03-02T07:49:09;4.50;99.90
20041;DHT22;10181;48.072;9.884;2024-03-02T07:51:35;4.60;99.90
20041;DHT22;10181;48.072;9.884;2024-03-02T07:54:01;4.80;99.90
20041;DHT22;10181;48.072;9.884;2024-03-02T07:56:27;4.90;99.90
20041;DHT22;10181;48.072;9.884;2024-03-02T07:58:53;4.90;99.90
20041;DHT22;10181;48.072;9.884;2024-03-02T08:01:19;4.90;99.90
20041;DHT22;10181;48.072;9.884;2024-03-02T08:03:45;5.00;99.90
20041;DHT22;10181;48.072;9.884;2024-03-02T08:06:14;5.10;99.90
20041;DHT22;10181;48.072;9.884;2024-03-02T08:08:40;5.20;99.90
20041;DHT22;10181;48.072;9.884;2024-03-02T08:11:06;5.20;99.90
20041;DHT22;10181;48.072;9.884;2024-03-02T08:13:31;5.10;99.90
20041;DHT22;10181;48.072;9.884;2024-03-02T08:15:57;5.00;99.90
20041;DHT22;10181;48.072;9.884;2024-03-02T08:18:23;5.00;99.90
20041;DHT22;10181;48.072;9.884;2024-03-02T08:20:49;5.00;99.90
20041;DHT22;10181;48.072;9.884;2024-03-02T08:23:14;5.10;99.90
20041;DHT22;10181;48.072;9.884;2024-03-02T08:25:40;5.20;99.90
20041;DHT22;10181;48.072;9.884;2024-03-02T08:28:06;5.30;99.90
20041;DHT22;10181;48.072;9.884;2024-03-02T08:30:31;5.30;99.90
20041;DHT22;10181;48.072;9.884;2024-03-02T08:32:57;5.20;99.90
20041;DHT22;10181;48.072;9.884;2024-03-02T08:35:22;5.30;99.90
20041;DHT22;10181;48.072;9.884;2024-03-02T08:37:48;5.30;99.90
20041;DHT22;10181;48.072;9.884;2024-03-02T08:40:14;5.50;99.90
20041;DHT22;10181;48.072;9.884;2024-03-02T08:42:40;5.60;99.90
20041;DHT22;10181;48.072;9.884;2024-03-02T08:45:07;5.80;99.90
20041;DHT22;10181;48.072;9.884;2024-03-02T08:47:33;5.90;99.90
20041;DHT22;10181;48.072;9.884;2024-03-02T08:49:59;6.00;99.90
20041;DHT22;10181;48.072;9.884;2024-03-02T08:52:25;6.20;99.90
20041;DHT22;10181;48.072;9.884;2024-03-02T08:54:51;6.50;99.90
20041;DHT22;10181;48.072;9.884;2024-03-02T08:57:17;6.80;99.90
20041;DHT22;10181;48.072;9.884;2024-03-02T08:59:42;7.00;99.90
20041;DHT22;10181;48.072;9.884;2024-03-02T09:02:09;7.30;99.90
20041;DHT22;10181;48.072;9.884;2024-03-02T09:04:35;7.50;99.90
20041;DHT22;10181;48.072;9.884;2024-03-02T09:07:00;7.80;99.90
20041;DHT22;10181;48.072;9.884;2024-03-02T09:09:26;8.20;99.90
20041;DHT22;10181;48.072;9.884;2024-03-02T09:11:52;8.60;99.90
20041;DHT22;10181;48.072;9.884;2024-03-02T09:14:20;8.80;99.90
20041;DHT22;10181;48.072;9.884;2024-03-02T09:16:46;9.10;99.90
20041;DHT22;10181;48.072;9.884;2024-03-02T09:19:11;9.30;99.90
20041;DHT22;10181;48.072;9.884;2024-03-02T09:21:37;9.40;99.90
20041;DHT22;10181;48.072;9.884;2024-03-02T09:24:03;9.50;99.90
20041;DHT22;10181;48.072;9.884;2024-03-02T09:26:29;9.60;99.90
20041;DHT22;10181;48.072;9.884;2024-03-02T09:28:54;9.70;99.90
20041;DHT22;10181;48.072;9.884;2024-03-02T09:31:20;9.80;99.90
20041;DHT22;10181;48.072;9.884;2024-03-02T09:33:46;9.90;99.90
20041;DHT22;10181;48.072;9.884;2024-03-02T09:36:22;10.00;99.90
20041;DHT22;10181;48.072;9.884;2024-03-02T09:38:48;10.00;99.90
20041;DHT22;10181;48.072;9.884;2024-03-02T09:41:14;10.00;99.90
20041;DHT22;10181;48.072;9.884;2024-03-02T09:43:40;10.10;99.90
20041;DHT22;10181;48.072;9.884;2024-03-02T09:46:09;10.10;99.90
20041;DHT22;10181;48.072;9.884;2024-03-02T09:48:35;10.10;99.90
20041;DHT22;10181;48.072;9.884;2024-03-02T09:51:00;10.00;99.90
20041;DHT22;10181;48.072;9.884;2024-03-02T09:53:31;10.00;99.90
20041;DHT22;10181;48.072;9.884;2024-03-02T09:55:58;10.00;99.90
20041;DHT22;10181;48.072;9.884;2024-03-02T09:58:24;10.00;99.90
20041;DHT22;10181;48.072;9.884;2024-03-02T10:00:49;9.90;99.90
20041;DHT22;10181;48.072;9.884;2024-03-02T10:03:15;9.90;99.90
20041;DHT22;10181;48.072;9.884;2024-03-02T10:05:42;9.80;99.90
20041;DHT22;10181;48.072;9.884;2024-03-02T10:08:07;9.70;99.90
20041;DHT22;10181;48.072;9.884;2024-03-02T10:10:37;9.60;99.90
20041;DHT22;10181;48.072;9.884;2024-03-02T10:13:06;9.60;99.90
20041;DHT22;10181;48.072;9.884;2024-03-02T10:15:32;9.60;99.90
20041;DHT22;10181;48.072;9.884;2024-03-02T10:17:57;9.50;99.90
20041;DHT22;10181;48.072;9.884;2024-03-02T10:20:26;9.50;99.90
20041;DHT22;10181;48.072;9.884;2024-03-02T10:22:55;9.40;99.90
20041;DHT22;10181;48.072;9.884;2024-03-02T10:25:33;9.50;99.90
20041;DHT22;10181;48.072;9.884;2024-03-02T10:28:00;9.60;99.90
20041;DHT22;10181;48.072;9.884;2024-03-02T10:30:26;9.60;99.90
20041;DHT22;10181;48.072;9.884;2024-03-02T10:32:55;9.80;99.90
20041;DHT22;10181;48.072;9.884;2024-03-02T10:35:22;9.70;99.90
20041;DHT22;10181;48.072;9.884;2024-03-02T10:37:49;9.70;99.90
20041;DHT22;10181;48.072;9.884;2024-03-02T10:40:15;9.80;99.90
20041;DHT22;10181;48.072;9.884;2024-03-02T10:42:42;9.80;99.90
20041;DHT22;10181;48.072;9.884;2024-03-02T10:45:09;9.90;99.90
20041;DHT22;10181;48.072;9.884;2024-03-02T10:47:36;9.90;99.90
20041;DHT22;10181;48.072;9.884;2024-03-02T10:50:04;10.00;99.90
20041;DHT22;10181;48.072;9.884;2024-03-02T10:52:34;10.00;99.90
20041;DHT22;10181;48.072;9.884;2024-03-02T10:55:00;10.00;99.90
20041;DHT22;10181;48.072;9.884;2024-03-02T10:57:27;10.10;99.90
20041;DHT22;10181;48.072;9.884;2024-03-02T11:00:00;10.10;99.90
20041;DHT22;10181;48.072;9.884;2024-03-02T11:02:28;10.20;99.90
20041;DHT22;10181;48.072;9.884;2024-03-02T11:04:56;10.20;99.90
20041;DHT22;10181;48.072;9.884;2024-03-02T11:07:27;10.30;99.90
20041;DHT22;10181;48.072;9.884;2024-03-02T11:09:59;10.30;99.90
20041;DHT22;10181;48.072;9.884;2024-03-02T11:12:29;10.30;99.90
20041;DHT22;10181;48.072;9.884;2024-03-02T11:14:58;10.30;99.90
20041;DHT22;10181;48.072;9.884;2024-03-02T11:17:24;10.30;99.90
20041;DHT22;10181;48.072;9.884;2024-03-02T11:19:51;10.30;99.90
20041;DHT22;10181;48.072;9.884;2024-03-02T11:22:18;10.40;99.90
20041;DHT22;10181;48.072;9.884;2024-03-02T11:24:51;10.50;99.90
20041;DHT22;10181;48.072;9.884;2024-03-02T11:33:02;10.80;99.90
20041;DHT22;10181;48.072;9.884;2024-03-02T11:35:38;10.90;99.90
20041;DHT22;10181;48.072;9.884;2024-03-02T11:38:06;11.00;99.90
20041;DHT22;10181;48.072;9.884;2024-03-02T11:40:32;11.00;99.90
20041;DHT22;10181;48.072;9.884;2024-03-02T11:42:59;11.10;99.90
20041;DHT22;10181;48.072;9.884;2024-03-02T11:45:26;11.30;99.90
20041;DHT22;10181;48.072;9.884;2024-03-02T11:47:56;11.40;99.90
20041;DHT22;10181;48.072;9.884;2024-03-02T11:50:42;11.60;99.90
20041;DHT22;10181;48.072;9.884;2024-03-02T11:53:11;11.90;99.90
20041;DHT22;10181;48.072;9.884;2024-03-02T11:55:38;12.20;99.90
20041;DHT22;10181;48.072;9.884;2024-03-02T11:58:12;12.50;99.90
20041;DHT22;10181;48.072;9.884;2024-03-02T12:00:38;12.90;99.90
20041;DHT22;10181;48.072;9.884;2024-03-02T12:03:08;13.30;99.90
20041;DHT22;10181;48.072;9.884;2024-03-02T12:05:34;13.90;99.90
20041;DHT22;10181;48.072;9.884;2024-03-02T12:08:02;14.50;99.90
20041;DHT22;10181;48.072;9.884;2024-03-02T12:10:29;15.00;99.90
20041;DHT22;10181;48.072;9.884;2024-03-02T12:13:04;15.30;99.90
20041;DHT22;10181;48.072;9.884;2024-03-02T12:15:36;15.60;99.90
20041;DHT22;10181;48.072;9.884;2024-03-02T12:18:06;16.00;99.90
20041;DHT22;10181;48.072;9.884;2024-03-02T12:20:32;16.10;99.90
20041;DHT22;10181;48.072;9.884;2024-03-02T12:22:59;16.40;99.90
20041;DHT22;10181;48.072;9.884;2024-03-02T12:25:26;16.70;99.90
20041;DHT22;10181;48.072;9.884;2024-03-02T12:27:59;17.30;99.90
20041;DHT22;10181;48.072;9.884;2024-03-02T12:30:27;17.80;99.90
20041;DHT22;10181;48.072;9.884;2024-03-02T12:32:54;18.20;99.90
20041;DHT22;10181;48.072;9.884;2024-03-02T12:35:20;18.60;99.90
20041;DHT22;10181;48.072;9.884;2024-03-02T12:37:49;18.90;99.90
20041;DHT22;10181;48.072;9.884;2024-03-02T12:40:16;18.90;99.90
20041;DHT22;10181;48.072;9.884;2024-03-02T12:42:46;19.10;99.90
20041;DHT22;10181;48.072;9.884;2024-03-02T12:45:13;19.40;99.90
20041;DHT22;10181;48.072;9.884;2024-03-02T12:47:40;19.40;99.90
20041;DHT22;10181;48.072;9.884;2024-03-02T12:50:06;19.20;99.90
20041;DHT22;10181;48.072;9.884;2024-03-02T12:52:33;18.90;99.90
20041;DHT22;10181;48.072;9.884;2024-03-02T12:55:00;18.90;99.90
20041;DHT22;10181;48.072;9.884;2024-03-02T12:57:27;18.90;99.90
20041;DHT22;10181;48.072;9.884;2024-03-02T13:00:00;18.90;99.90
20041;DHT22;10181;48.072;9.884;2024-03-02T13:02:30;18.70;99.90
20041;DHT22;10181;48.072;9.884;2024-03-02T13:04:57;18.70;99.90
20041;DHT22;10181;48.072;9.884;2024-03-02T13:07:26;18.60;99.90
20041;DHT22;10181;48.072;9.884;2024-03-02T13:09:53;18.50;99.90
20041;DHT22;10181;48.072;9.884;2024-03-02T13:12:21;18.40;99.90
20041;DHT22;10181;48.072;9.884;2024-03-02T13:14:52;18.40;99.90
20041;DHT22;10181;48.072;9.884;2024-03-02T13:17:21;18.40;99.90
20041;DHT22;10181;48.072;9.884;2024-03-02T13:19:56;18.60;99.90
20041;DHT22;10181;48.072;9.884;2024-03-02T13:22:22;18.70;99.90
20041;DHT22;10181;48.072;9.884;2024-03-02T13:24:49;18.80;99.90
20041;DHT22;10181;48.072;9.884;2024-03-02T13:27:15;18.60;99.90
20041;DHT22;10181;48.072;9.884;2024-03-02T13:29:42;18.50;99.90
20041;DHT22;10181;48.072;9.884;2024-03-02T13:32:07;18.30;99.90
20041;DHT22;10181;48.072;9.884;2024-03-02T13:34:35;18.00;99.90
20041;DHT22;10181;48.072;9.884;2024-03-02T13:37:01;17.40;99.90
20041;DHT22;10181;48.072;9.884;2024-03-02T13:39:27;16.80;99.90
20041;DHT22;10181;48.072;9.884;2024-03-02T13:41:53;16.20;99.90
20041;DHT22;10181;48.072;9.884;2024-03-02T13:44:27;15.80;99.90
20041;DHT22;10181;48.072;9.884;2024-03-02T13:46:52;15.40;99.90
20041;DHT22;10181;48.072;9.884;2024-03-02T13:49:18;14.80;99.90
20041;DHT22;10181;48.072;9.884;2024-03-02T13:51:44;14.40;99.90
20041;DHT22;10181;48.072;9.884;2024-03-02T13:54:11;14.20;99.90
20041;DHT22;10181;48.072;9.884;2024-03-02T13:56:37;13.80;99.90
20041;DHT22;10181;48.072;9.884;2024-03-02T13:59:04;13.60;99.90
20041;DHT22;10181;48.072;9.884;2024-03-02T14:01:31;13.40;99.90
20041;DHT22;10181;48.072;9.884;2024-03-02T14:03:58;13.30;99.90
20041;DHT22;10181;48.072;9.884;2024-03-02T14:06:23;13.10;99.90
20041;DHT22;10181;48.072;9.884;2024-03-02T14:08:51;13.00;99.90
20041;DHT22;10181;48.072;9.884;2024-03-02T14:11:17;13.00;99.90
20041;DHT22;10181;48.072;9.884;2024-03-02T14:13:43;12.90;99.90
20041;DHT22;10181;48.072;9.884;2024-03-02T14:16:10;13.00;99.90
20041;DHT22;10181;48.072;9.884;2024-03-02T14:18:36;13.00;99.90
20041;DHT22;10181;48.072;9.884;2024-03-02T14:21:01;13.00;99.90
20041;DHT22;10181;48.072;9.884;2024-03-02T14:23:29;13.20;99.90
20041;DHT22;10181;48.072;9.884;2024-03-02T14:25:55;13.40;99.90
20041;DHT22;10181;48.072;9.884;2024-03-02T14:28:21;13.40;99.90
20041;DHT22;10181;48.072;9.884;2024-03-02T14:30:46;13.50;99.90
20041;DHT22;10181;48.072;9.884;2024-03-02T14:33:12;13.40;99.90
20041;DHT22;10181;48.072;9.884;2024-03-02T14:35:39;13.40;99.90
20041;DHT22;10181;48.072;9.884;2024-03-02T14:38:04;13.30;99.90
20041;DHT22;10181;48.072;9.884;2024-03-02T14:40:30;13.20;99.90
20041;DHT22;10181;48.072;9.884;2024-03-02T14:42:56;13.20;99.90
20041;DHT22;10181;48.072;9.884;2024-03-02T14:45:22;13.20;99.90
20041;DHT22;10181;48.072;9.884;2024-03-02T14:47:49;13.30;99.90
20041;DHT22;10181;48.072;9.884;2024-03-02T14:50:15;13.40;99.90
20041;DHT22;10181;48.072;9.884;2024-03-02T14:52:42;13.50;99.90
20041;DHT22;10181;48.072;9.884;2024-03-02T14:55:07;13.50;99.90
20041;DHT22;10181;48.072;9.884;2024-03-02T14:57:33;13.50;99.90
20041;DHT22;10181;48.072;9.884;2024-03-02T14:59:59;13.60;99.90
20041;DHT22;10181;48.072;9.884;2024-03-02T15:02:24;13.60;99.90
20041;DHT22;10181;48.072;9.884;2024-03-02T15:04:50;13.60;99.90
20041;DHT22;10181;48.072;9.884;2024-03-02T15:07:16;13.50;99.90
20041;DHT22;10181;48.072;9.884;2024-03-02T15:09:42;13.30;99.90
20041;DHT22;10181;48.072;9.884;2024-03-02T15:12:08;13.20;99.90
20041;DHT22;10181;48.072;9.884;2024-03-02T15:14:39;13.10;99.90
20041;DHT22;10181;48.072;9.884;2024-03-02T15:17:12;13.10;99.90
20041;DHT22;10181;48.072;9.884;2024-03-02T15:19:40;13.10;99.90
20041;DHT22;10181;48.072;9.884;2024-03-02T15:22:06;13.10;99.90
20041;DHT22;10181;48.072;9.884;2024-03-02T15:24:32;13.00;99.90
20041;DHT22;10181;48.072;9.884;2024-03-02T15:26:57;12.90;99.90
20041;DHT22;10181;48.072;9.884;2024-03-02T15:29:23;12.80;99.90
20041;DHT22;10181;48.072;9.884;2024-03-02T15:31:54;12.80;99.90
20041;DHT22;10181;48.072;9.884;2024-03-02T15:34:19;12.80;99.90
20041;DHT22;10181;48.072;9.884;2024-03-02T15:36:45;12.70;99.90
20041;DHT22;10181;48.072;9.884;2024-03-02T15:39:10;12.70;99.90
20041;DHT22;10181;48.072;9.884;2024-03-02T15:41:36;12.60;99.90
20041;DHT22;10181;48.072;9.884;2024-03-02T15:44:02;12.60;99.90
20041;DHT22;10181;48.072;9.884;2024-03-02T15:46:28;12.50;99.90
20041;DHT22;10181;48.072;9.884;2024-03-02T15:48:53;12.40;99.90